sensor_id;sensor_type;location;lat;lon;timestamp;P1;durP1;ratioP1;P2;durP2;ratioP2
16727;SDS011;8482;54.396;18.590;2023-04-15T00:01:26;14.68;;;9.23;;
16727;SDS011;8482;54.396;18.590;2023-04-15T00:03:53;16.13;;;10.10;;
16727;SDS011;8482;54.396;18.590;2023-04-15T00:06:20;14.10;;;9.38;;
16727;SDS011;8482;54.396;18.590;2023-04-15T00:08:47;13.10;;;9.05;;
16727;SDS011;8482;54.396;18.590;2023-04-15T00:11:14;12.75;;;9.07;;
16727;SDS011;8482;54.396;18.590;2023-04-15T00:13:42;13.18;;;9.70;;
16727;SDS011;8482;54.396;18.590;2023-04-15T00:16:08;12.52;;;8.98;;
16727;SDS011;8482;54.396;18.590;2023-04-15T00:18:36;14.55;;;9.90;;
16727;SDS011;8482;54.396;18.590;2023-04-15T00:21:02;13.52;;;8.73;;
16727;SDS011;8482;54.396;18.590;2023-04-15T00:23:29;14.13;;;9.88;;
16727;SDS011;8482;54.396;18.590;2023-04-15T00:25:55;13.65;;;9.70;;
16727;SDS011;8482;54.396;18.590;2023-04-15T00:28:21;14.10;;;9.57;;
16727;SDS011;8482;54.396;18.590;2023-04-15T00:30:47;13.05;;;8.93;;
16727;SDS011;8482;54.396;18.590;2023-04-15T00:33:13;12.55;;;8.95;;
16727;SDS011;8482;54.396;18.590;2023-04-15T00:35:40;16.83;;;10.70;;
16727;SDS011;8482;54.396;18.590;2023-04-15T00:38:06;13.57;;;9.73;;
16727;SDS011;8482;54.396;18.590;2023-04-15T00:40:32;14.95;;;10.77;;
16727;SDS011;8482;54.396;18.590;2023-04-15T00:42:59;14.10;;;10.20;;
16727;SDS011;8482;54.396;18.590;2023-04-15T00:45:25;13.50;;;9.40;;
16727;SDS011;8482;54.396;18.590;2023-04-15T00:47:52;13.77;;;9.57;;
16727;SDS011;8482;54.396;18.590;2023-04-15T00:50:18;13.95;;;9.50;;
16727;SDS011;8482;54.396;18.590;2023-04-15T00:52:44;13.63;;;9.93;;
16727;SDS011;8482;54.396;18.590;2023-04-15T00:55:10;13.35;;;9.57;;
16727;SDS011;8482;54.396;18.590;2023-04-15T00:57:36;15.70;;;10.05;;
16727;SDS011;8482;54.396;18.590;2023-04-15T01:00:04;14.63;;;10.13;;
16727;SDS011;8482;54.396;18.590;2023-04-15T01:02:33;16.80;;;10.63;;
16727;SDS011;8482;54.396;18.590;2023-04-15T01:05:00;12.93;;;10.15;;
16727;SDS011;8482;54.396;18.590;2023-04-15T01:07:28;15.35;;;11.02;;
16727;SDS011;8482;54.396;18.590;2023-04-15T01:09:54;16.60;;;9.93;;
16727;SDS011;8482;54.396;18.590;2023-04-15T01:12:21;13.32;;;10.52;;
16727;SDS011;8482;54.396;18.590;2023-04-15T01:14:50;14.60;;;10.60;;
16727;SDS011;8482;54.396;18.590;2023-04-15T01:17:17;14.13;;;10.00;;
16727;SDS011;8482;54.396;18.590;2023-04-15T01:19:44;13.52;;;10.00;;
16727;SDS011;8482;54.396;18.590;2023-04-15T01:22:10;13.90;;;10.38;;
16727;SDS011;8482;54.396;18.590;2023-04-15T01:24:36;17.05;;;11.10;;
16727;SDS011;8482;54.396;18.590;2023-04-15T01:27:03;16.55;;;11.02;;
16727;SDS011;8482;54.396;18.590;2023-04-15T01:29:30;16.35;;;10.75;;
16727;SDS011;8482;54.396;18.590;2023-04-15T01:31:57;14.80;;;10.52;;
16727;SDS011;8482;54.396;18.590;2023-04-15T01:34:23;15.15;;;10.43;;
16727;SDS011;8482;54.396;18.590;2023-04-15T01:36:49;17.45;;;10.45;;
16727;SDS011;8482;54.396;18.590;2023-04-15T01:39:15;14.50;;;10.05;;
16727;SDS011;8482;54.396;18.590;2023-04-15T01:41:41;16.73;;;10.77;;
16727;SDS011;8482;54.396;18.590;2023-04-15T01:44:07;15.63;;;10.50;;
16727;SDS011;8482;54.396;18.590;2023-04-15T01:46:33;15.57;;;10.73;;
16727;SDS011;8482;54.396;18.590;2023-04-15T01:48:59;15.63;;;10.52;;
16727;SDS011;8482;54.396;18.590;2023-04-15T01:51:25;16.08;;;10.20;;
16727;SDS011;8482;54.396;18.590;2023-04-15T01:53:51;14.88;;;9.60;;
16727;SDS011;8482;54.396;18.590;2023-04-15T01:56:20;15.63;;;11.02;;
16727;SDS011;8482;54.396;18.590;2023-04-15T01:58:48;14.18;;;9.65;;
16727;SDS011;8482;54.396;18.590;2023-04-15T02:01:14;14.88;;;10.15;;
16727;SDS011;8482;54.396;18.590;2023-04-15T02:03:40;16.15;;;10.82;;
16727;SDS011;8482;54.396;18.590;2023-04-15T02:06:06;15.77;;;9.77;;
16727;SDS011;8482;54.396;18.590;2023-04-15T02:08:32;12.65;;;9.23;;
16727;SDS011;8482;54.396;18.590;2023-04-15T02:10:58;13.93;;;9.50;;
16727;SDS011;8482;54.396;18.590;2023-04-15T02:13:25;13.02;;;9.00;;
16727;SDS011;8482;54.396;18.590;2023-04-15T02:15:51;14.10;;;9.70;;
16727;SDS011;8482;54.396;18.590;2023-04-15T02:18:19;12.10;;;9.48;;
16727;SDS011;8482;54.396;18.590;2023-04-15T02:20:45;13.50;;;8.98;;
16727;SDS011;8482;54.396;18.590;2023-04-15T02:23:12;14.77;;;9.45;;
16727;SDS011;8482;54.396;18.590;2023-04-15T02:25:38;14.25;;;8.63;;
16727;SDS011;8482;54.396;18.590;2023-04-15T02:28:04;11.90;;;8.82;;
16727;SDS011;8482;54.396;18.590;2023-04-15T02:30:31;12.15;;;8.68;;
16727;SDS011;8482;54.396;18.590;2023-04-15T02:32:57;13.05;;;9.10;;
16727;SDS011;8482;54.396;18.590;2023-04-15T02:35:25;11.43;;;8.38;;
16727;SDS011;8482;54.396;18.590;2023-04-15T02:37:51;11.90;;;8.23;;
16727;SDS011;8482;54.396;18.590;2023-04-15T02:40:17;13.13;;;8.57;;
16727;SDS011;8482;54.396;18.590;2023-04-15T02:42:43;12.27;;;8.43;;
16727;SDS011;8482;54.396;18.590;2023-04-15T02:45:09;13.50;;;8.07;;
16727;SDS011;8482;54.396;18.590;2023-04-15T02:47:36;12.50;;;8.23;;
16727;SDS011;8482;54.396;18.590;2023-04-15T02:50:10;11.88;;;8.65;;
16727;SDS011;8482;54.396;18.590;2023-04-15T02:52:40;12.45;;;8.70;;
16727;SDS011;8482;54.396;18.590;2023-04-15T02:55:07;13.05;;;8.43;;
16727;SDS011;8482;54.396;18.590;2023-04-15T02:57:34;11.00;;;8.10;;
16727;SDS011;8482;54.396;18.590;2023-04-15T03:00:02;12.57;;;8.75;;
16727;SDS011;8482;54.396;18.590;2023-04-15T03:06:10;10.43;;;7.75;;
16727;SDS011;8482;54.396;18.590;2023-04-15T03:08:35;10.98;;;7.70;;
16727;SDS011;8482;54.396;18.590;2023-04-15T03:11:01;13.00;;;8.93;;
16727;SDS011;8482;54.396;18.590;2023-04-15T03:13:28;12.63;;;8.43;;
16727;SDS011;8482;54.396;18.590;2023-04-15T03:15:54;14.27;;;8.55;;
16727;SDS011;8482;54.396;18.590;2023-04-15T03:18:20;11.88;;;7.85;;
16727;SDS011;8482;54.396;18.590;2023-04-15T03:20:46;12.15;;;7.90;;
16727;SDS011;8482;54.396;18.590;2023-04-15T03:23:11;11.25;;;8.07;;
16727;SDS011;8482;54.396;18.590;2023-04-15T03:25:37;11.98;;;8.48;;
16727;SDS011;8482;54.396;18.590;2023-04-15T03:28:03;11.95;;;7.78;;
16727;SDS011;8482;54.396;18.590;2023-04-15T03:30:30;11.80;;;8.02;;
16727;SDS011;8482;54.396;18.590;2023-04-15T03:32:56;12.00;;;7.63;;
16727;SDS011;8482;54.396;18.590;2023-04-15T03:35:21;12.73;;;8.93;;
16727;SDS011;8482;54.396;18.590;2023-04-15T03:37:47;12.82;;;8.57;;
16727;SDS011;8482;54.396;18.590;2023-04-15T03:40:13;11.52;;;7.85;;
16727;SDS011;8482;54.396;18.590;2023-04-15T03:42:39;11.40;;;7.72;;
16727;SDS011;8482;54.396;18.590;2023-04-15T03:45:05;13.23;;;8.48;;
16727;SDS011;8482;54.396;18.590;2023-04-15T03:47:32;12.68;;;8.57;;
16727;SDS011;8482;54.396;18.590;2023-04-15T03:49:57;14.63;;;9.18;;
16727;SDS011;8482;54.396;18.590;2023-04-15T03:52:23;12.40;;;8.80;;
16727;SDS011;8482;54.396;18.590;2023-04-15T03:54:49;12.55;;;8.82;;
16727;SDS011;8482;54.396;18.590;2023-04-15T03:57:15;13.48;;;9.35;;
16727;SDS011;8482;54.396;18.590;2023-04-15T03:59:41;13.57;;;8.32;;
16727;SDS011;8482;54.396;18.590;2023-04-15T04:02:07;14.13;;;9.35;;
16727;SDS011;8482;54.396;18.590;2023-04-15T04:04:32;13.48;;;9.55;;
16727;SDS011;8482;54.396;18.590;2023-04-15T04:06:58;12.05;;;8.50;;
16727;SDS011;8482;54.396;18.590;2023-04-15T04:09:24;13.45;;;8.80;;
16727;SDS011;8482;54.396;18.590;2023-04-15T04:11:51;13.80;;;9.60;;
16727;SDS011;8482;54.396;18.590;2023-04-15T04:14:17;12.45;;;9.38;;
16727;SDS011;8482;54.396;18.590;2023-04-15T04:16:43;13.65;;;9.88;;
16727;SDS011;8482;54.396;18.590;2023-04-15T04:19:09;12.88;;;9.45;;
16727;SDS011;8482;54.396;18.590;2023-04-15T04:21:35;12.82;;;9.70;;
16727;SDS011;8482;54.396;18.590;2023-04-15T04:24:01;12.95;;;9.48;;
16727;SDS011;8482;54.396;18.590;2023-04-15T04:26:27;15.38;;;9.50;;
16727;SDS011;8482;54.396;18.590;2023-04-15T04:28:53;12.98;;;9.27;;
16727;SDS011;8482;54.396;18.590;2023-04-15T04:31:18;13.77;;;9.65;;
16727;SDS011;8482;54.396;18.590;2023-04-15T04:33:45;13.85;;;9.55;;
16727;SDS011;8482;54.396;18.590;2023-04-15T04:36:10;14.68;;;9.90;;
16727;SDS011;8482;54.396;18.590;2023-04-15T04:38:36;13.63;;;9.73;;
16727;SDS011;8482;54.396;18.590;2023-04-15T04:41:02;13.45;;;9.48;;
16727;SDS011;8482;54.396;18.590;2023-04-15T04:43:28;14.10;;;9.10;;
16727;SDS011;8482;54.396;18.590;2023-04-15T04:45:54;14.32;;;9.70;;
16727;SDS011;8482;54.396;18.590;2023-04-15T04:48:20;14.50;;;9.82;;
16727;SDS011;8482;54.396;18.590;2023-04-15T04:50:46;14.82;;;9.57;;
16727;SDS011;8482;54.396;18.590;2023-04-15T04:53:13;14.60;;;9.77;;
16727;SDS011;8482;54.396;18.590;2023-04-15T04:55:39;12.40;;;8.73;;
16727;SDS011;8482;54.396;18.590;2023-04-15T04:58:05;13.23;;;9.07;;
16727;SDS011;8482;54.396;18.590;2023-04-15T05:00:30;13.80;;;9.88;;
16727;SDS011;8482;54.396;18.590;2023-04-15T05:02:56;14.57;;;9.77;;
16727;SDS011;8482;54.396;18.590;2023-04-15T05:05:22;14.95;;;9.60;;
16727;SDS011;8482;54.396;18.590;2023-04-15T05:07:48;13.82;;;9.32;;
16727;SDS011;8482;54.396;18.590;2023-04-15T05:10:14;13.27;;;9.55;;
16727;SDS011;8482;54.396;18.590;2023-04-15T05:12:42;13.70;;;9.02;;
16727;SDS011;8482;54.396;18.590;2023-04-15T05:15:08;11.95;;;8.95;;
16727;SDS011;8482;54.396;18.590;2023-04-15T05:17:34;13.80;;;9.45;;
16727;SDS011;8482;54.396;18.590;2023-04-15T05:20:01;14.45;;;10.07;;
16727;SDS011;8482;54.396;18.590;2023-04-15T05:22:27;14.57;;;9.93;;
16727;SDS011;8482;54.396;18.590;2023-04-15T05:24:53;15.98;;;9.73;;
16727;SDS011;8482;54.396;18.590;2023-04-15T05:27:19;14.00;;;9.18;;
16727;SDS011;8482;54.396;18.590;2023-04-15T05:29:46;14.10;;;10.32;;
16727;SDS011;8482;54.396;18.590;2023-04-15T05:32:13;13.82;;;9.68;;
16727;SDS011;8482;54.396;18.590;2023-04-15T05:34:39;14.48;;;10.00;;
16727;SDS011;8482;54.396;18.590;2023-04-15T05:37:05;13.98;;;9.23;;
16727;SDS011;8482;54.396;18.590;2023-04-15T05:39:31;13.15;;;9.18;;
16727;SDS011;8482;54.396;18.590;2023-04-15T05:41:58;14.10;;;9.18;;
16727;SDS011;8482;54.396;18.590;2023-04-15T05:44:24;15.27;;;9.13;;
16727;SDS011;8482;54.396;18.590;2023-04-15T05:46:50;13.82;;;9.00;;
16727;SDS011;8482;54.396;18.590;2023-04-15T05:49:16;12.55;;;8.70;;
16727;SDS011;8482;54.396;18.590;2023-04-15T05:51:42;12.45;;;9.02;;
16727;SDS011;8482;54.396;18.590;2023-04-15T05:54:08;13.38;;;9.15;;
16727;SDS011;8482;54.396;18.590;2023-04-15T05:56:33;14.95;;;9.43;;
16727;SDS011;8482;54.396;18.590;2023-04-15T05:58:59;14.25;;;9.57;;
16727;SDS011;8482;54.396;18.590;2023-04-15T06:01:25;16.00;;;9.30;;
16727;SDS011;8482;54.396;18.590;2023-04-15T06:03:52;15.68;;;8.95;;
16727;SDS011;8482;54.396;18.590;2023-04-15T06:06:17;11.93;;;8.80;;
16727;SDS011;8482;54.396;18.590;2023-04-15T06:08:44;14.40;;;9.45;;
16727;SDS011;8482;54.396;18.590;2023-04-15T06:11:10;13.07;;;9.07;;
16727;SDS011;8482;54.396;18.590;2023-04-15T06:13:36;13.30;;;9.13;;
16727;SDS011;8482;54.396;18.590;2023-04-15T06:16:01;12.48;;;8.85;;
16727;SDS011;8482;54.396;18.590;2023-04-15T06:18:28;13.35;;;9.23;;
16727;SDS011;8482;54.396;18.590;2023-04-15T06:20:54;12.75;;;9.18;;
16727;SDS011;8482;54.396;18.590;2023-04-15T06:23:20;12.52;;;9.15;;
16727;SDS011;8482;54.396;18.590;2023-04-15T06:25:46;14.65;;;8.88;;
16727;SDS011;8482;54.396;18.590;2023-04-15T06:28:12;14.75;;;9.88;;
16727;SDS011;8482;54.396;18.590;2023-04-15T06:30:37;14.48;;;9.80;;
16727;SDS011;8482;54.396;18.590;2023-04-15T06:33:04;15.48;;;9.95;;
16727;SDS011;8482;54.396;18.590;2023-04-15T06:35:30;13.57;;;9.10;;
16727;SDS011;8482;54.396;18.590;2023-04-15T06:37:56;13.95;;;9.00;;
16727;SDS011;8482;54.396;18.590;2023-04-15T06:40:22;12.88;;;9.57;;
16727;SDS011;8482;54.396;18.590;2023-04-15T06:42:48;13.77;;;8.40;;
16727;SDS011;8482;54.396;18.590;2023-04-15T06:45:13;12.18;;;8.45;;
16727;SDS011;8482;54.396;18.590;2023-04-15T06:47:40;12.75;;;8.88;;
16727;SDS011;8482;54.396;18.590;2023-04-15T06:50:06;13.85;;;9.27;;
16727;SDS011;8482;54.396;18.590;2023-04-15T06:52:33;14.75;;;9.43;;
16727;SDS011;8482;54.396;18.590;2023-04-15T06:55:00;15.38;;;9.50;;
16727;SDS011;8482;54.396;18.590;2023-04-15T06:57:26;13.35;;;8.50;;
16727;SDS011;8482;54.396;18.590;2023-04-15T06:59:53;14.20;;;7.85;;
16727;SDS011;8482;54.396;18.590;2023-04-15T07:02:19;12.50;;;8.43;;
16727;SDS011;8482;54.396;18.590;2023-04-15T07:04:45;11.90;;;7.20;;
16727;SDS011;8482;54.396;18.590;2023-04-15T07:07:11;13.60;;;8.48;;
16727;SDS011;8482;54.396;18.590;2023-04-15T07:09:37;12.20;;;8.10;;
16727;SDS011;8482;54.396;18.590;2023-04-15T07:12:03;12.20;;;7.63;;
16727;SDS011;8482;54.396;18.590;2023-04-15T07:14:29;13.52;;;8.18;;
16727;SDS011;8482;54.396;18.590;2023-04-15T07:16:54;12.70;;;8.00;;
16727;SDS011;8482;54.396;18.590;2023-04-15T07:19:21;11.15;;;7.32;;
16727;SDS011;8482;54.396;18.590;2023-04-15T07:21:47;11.82;;;8.15;;
16727;SDS011;8482;54.396;18.590;2023-04-15T07:24:13;11.68;;;8.70;;
16727;SDS011;8482;54.396;18.590;2023-04-15T07:26:42;12.27;;;7.93;;
16727;SDS011;8482;54.396;18.590;2023-04-15T07:29:09;13.43;;;7.47;;
16727;SDS011;8482;54.396;18.590;2023-04-15T07:31:35;10.38;;;6.82;;
16727;SDS011;8482;54.396;18.590;2023-04-15T07:34:01;11.23;;;7.15;;
16727;SDS011;8482;54.396;18.590;2023-04-15T07:36:29;11.82;;;7.53;;
16727;SDS011;8482;54.396;18.590;2023-04-15T07:38:55;10.80;;;7.22;;
16727;SDS011;8482;54.396;18.590;2023-04-15T07:41:22;11.68;;;7.35;;
16727;SDS011;8482;54.396;18.590;2023-04-15T07:43:48;14.38;;;8.70;;
16727;SDS011;8482;54.396;18.590;2023-04-15T07:46:14;13.45;;;7.93;;
16727;SDS011;8482;54.396;18.590;2023-04-15T07:48:40;11.18;;;7.15;;
16727;SDS011;8482;54.396;18.590;2023-04-15T07:51:06;12.25;;;7.80;;
16727;SDS011;8482;54.396;18.590;2023-04-15T07:53:32;10.95;;;7.07;;
16727;SDS011;8482;54.396;18.590;2023-04-15T07:55:58;9.75;;;6.40;;
16727;SDS011;8482;54.396;18.590;2023-04-15T07:58:24;10.00;;;6.18;;
16727;SDS011;8482;54.396;18.590;2023-04-15T08:00:50;10.80;;;6.60;;
16727;SDS011;8482;54.396;18.590;2023-04-15T08:03:16;11.77;;;7.38;;
16727;SDS011;8482;54.396;18.590;2023-04-15T08:05:42;12.18;;;7.53;;
16727;SDS011;8482;54.396;18.590;2023-04-15T08:08:08;11.15;;;7.35;;
16727;SDS011;8482;54.396;18.590;2023-04-15T08:10:34;10.60;;;7.18;;
16727;SDS011;8482;54.396;18.590;2023-04-15T08:13:01;10.27;;;6.50;;
16727;SDS011;8482;54.396;18.590;2023-04-15T08:15:27;10.13;;;6.80;;
16727;SDS011;8482;54.396;18.590;2023-04-15T08:17:53;9.23;;;5.93;;
16727;SDS011;8482;54.396;18.590;2023-04-15T08:20:18;11.40;;;7.40;;
16727;SDS011;8482;54.396;18.590;2023-04-15T08:22:44;10.85;;;7.10;;
16727;SDS011;8482;54.396;18.590;2023-04-15T08:25:15;9.75;;;6.40;;
16727;SDS011;8482;54.396;18.590;2023-04-15T08:27:41;9.32;;;6.30;;
16727;SDS011;8482;54.396;18.590;2023-04-15T08:30:07;10.70;;;6.10;;
16727;SDS011;8482;54.396;18.590;2023-04-15T08:32:33;11.30;;;6.25;;
16727;SDS011;8482;54.396;18.590;2023-04-15T08:34:59;8.77;;;5.60;;
16727;SDS011;8482;54.396;18.590;2023-04-15T08:37:25;8.85;;;6.05;;
16727;SDS011;8482;54.396;18.590;2023-04-15T08:39:51;9.35;;;6.22;;
16727;SDS011;8482;54.396;18.590;2023-04-15T08:42:18;10.25;;;6.38;;
16727;SDS011;8482;54.396;18.590;2023-04-15T08:44:55;10.95;;;6.32;;
16727;SDS011;8482;54.396;18.590;2023-04-15T08:47:28;8.85;;;5.72;;
16727;SDS011;8482;54.396;18.590;2023-04-15T08:49:58;10.15;;;6.07;;
16727;SDS011;8482;54.396;18.590;2023-04-15T08:52:29;8.65;;;6.00;;
16727;SDS011;8482;54.396;18.590;2023-04-15T08:54:56;9.40;;;5.68;;
16727;SDS011;8482;54.396;18.590;2023-04-15T08:57:27;7.90;;;5.80;;
16727;SDS011;8482;54.396;18.590;2023-04-15T08:59:56;9.30;;;5.75;;
16727;SDS011;8482;54.396;18.590;2023-04-15T09:02:23;9.65;;;6.18;;
16727;SDS011;8482;54.396;18.590;2023-04-15T09:04:51;9.77;;;5.90;;
16727;SDS011;8482;54.396;18.590;2023-04-15T09:07:17;9.82;;;6.43;;
16727;SDS011;8482;54.396;18.590;2023-04-15T09:09:43;10.05;;;5.80;;
16727;SDS011;8482;54.396;18.590;2023-04-15T09:12:10;10.57;;;7.00;;
16727;SDS011;8482;54.396;18.590;2023-04-15T09:14:37;10.85;;;6.30;;
16727;SDS011;8482;54.396;18.590;2023-04-15T09:17:05;9.82;;;6.75;;
16727;SDS011;8482;54.396;18.590;2023-04-15T09:19:35;9.48;;;6.25;;
16727;SDS011;8482;54.396;18.590;2023-04-15T09:22:01;9.45;;;6.38;;
16727;SDS011;8482;54.396;18.590;2023-04-15T09:25:01;9.15;;;6.10;;
16727;SDS011;8482;54.396;18.590;2023-04-15T09:27:20;10.50;;;6.10;;
16727;SDS011;8482;54.396;18.590;2023-04-15T09:29:48;14.82;;;7.30;;
16727;SDS011;8482;54.396;18.590;2023-04-15T09:32:16;11.05;;;6.88;;
16727;SDS011;8482;54.396;18.590;2023-04-15T09:34:42;12.85;;;7.07;;
16727;SDS011;8482;54.396;18.590;2023-04-15T09:37:08;9.70;;;6.30;;
16727;SDS011;8482;54.396;18.590;2023-04-15T09:39:47;9.45;;;6.00;;
16727;SDS011;8482;54.396;18.590;2023-04-15T09:42:16;10.70;;;6.13;;
16727;SDS011;8482;54.396;18.590;2023-04-15T09:44:50;10.13;;;6.20;;
16727;SDS011;8482;54.396;18.590;2023-04-15T09:47:31;10.65;;;7.32;;
16727;SDS011;8482;54.396;18.590;2023-04-15T09:49:57;14.30;;;8.68;;
16727;SDS011;8482;54.396;18.590;2023-04-15T09:52:25;15.18;;;9.93;;
16727;SDS011;8482;54.396;18.590;2023-04-15T09:54:53;15.38;;;9.93;;
16727;SDS011;8482;54.396;18.590;2023-04-15T09:57:21;12.50;;;8.25;;
16727;SDS011;8482;54.396;18.590;2023-04-15T09:59:47;10.63;;;6.97;;
16727;SDS011;8482;54.396;18.590;2023-04-15T10:02:14;10.93;;;7.18;;
16727;SDS011;8482;54.396;18.590;2023-04-15T10:04:43;12.32;;;7.38;;
16727;SDS011;8482;54.396;18.590;2023-04-15T10:07:12;10.20;;;6.70;;
16727;SDS011;8482;54.396;18.590;2023-04-15T10:09:44;8.50;;;6.05;;
16727;SDS011;8482;54.396;18.590;2023-04-15T10:12:11;9.73;;;6.10;;
16727;SDS011;8482;54.396;18.590;2023-04-15T10:14:38;9.80;;;5.90;;
16727;SDS011;8482;54.396;18.590;2023-04-15T10:17:07;9.85;;;5.88;;
16727;SDS011;8482;54.396;18.590;2023-04-15T10:19:38;10.85;;;6.53;;
16727;SDS011;8482;54.396;18.590;2023-04-15T10:22:05;10.07;;;5.90;;
16727;SDS011;8482;54.396;18.590;2023-04-15T10:24:32;8.85;;;5.55;;
16727;SDS011;8482;54.396;18.590;2023-04-15T10:26:59;10.30;;;6.00;;
16727;SDS011;8482;54.396;18.590;2023-04-15T10:29:27;11.77;;;6.40;;
16727;SDS011;8482;54.396;18.590;2023-04-15T10:31:54;8.95;;;6.07;;
16727;SDS011;8482;54.396;18.590;2023-04-15T10:34:21;11.25;;;6.38;;
16727;SDS011;8482;54.396;18.590;2023-04-15T10:36:49;9.52;;;6.15;;
16727;SDS011;8482;54.396;18.590;2023-04-15T10:42:10;8.38;;;5.22;;
16727;SDS011;8482;54.396;18.590;2023-04-15T10:44:44;10.55;;;6.20;;
16727;SDS011;8482;54.396;18.590;2023-04-15T10:47:19;8.52;;;5.68;;
16727;SDS011;8482;54.396;18.590;2023-04-15T10:49:49;8.32;;;5.57;;
16727;SDS011;8482;54.396;18.590;2023-04-15T10:52:26;9.13;;;5.97;;
16727;SDS011;8482;54.396;18.590;2023-04-15T10:55:00;10.38;;;6.57;;
16727;SDS011;8482;54.396;18.590;2023-04-15T10:57:37;9.43;;;6.13;;
16727;SDS011;8482;54.396;18.590;2023-04-15T11:05:11;10.50;;;6.47;;
16727;SDS011;8482;54.396;18.590;2023-04-15T11:12:42;8.82;;;5.57;;
16727;SDS011;8482;54.396;18.590;2023-04-15T11:15:25;9.48;;;5.70;;
16727;SDS011;8482;54.396;18.590;2023-04-15T11:17:55;8.10;;;4.95;;
16727;SDS011;8482;54.396;18.590;2023-04-15T11:20:23;9.95;;;5.95;;
16727;SDS011;8482;54.396;18.590;2023-04-15T11:22:50;9.15;;;5.70;;
16727;SDS011;8482;54.396;18.590;2023-04-15T11:25:24;9.40;;;6.15;;
16727;SDS011;8482;54.396;18.590;2023-04-15T11:27:52;9.18;;;5.05;;
16727;SDS011;8482;54.396;18.590;2023-04-15T11:30:23;9.82;;;6.30;;
16727;SDS011;8482;54.396;18.590;2023-04-15T11:33:00;8.85;;;5.80;;
16727;SDS011;8482;54.396;18.590;2023-04-15T11:35:28;9.60;;;6.57;;
16727;SDS011;8482;54.396;18.590;2023-04-15T11:37:55;12.45;;;7.20;;
16727;SDS011;8482;54.396;18.590;2023-04-15T11:40:22;9.40;;;5.25;;
16727;SDS011;8482;54.396;18.590;2023-04-15T11:43:04;9.98;;;6.28;;
16727;SDS011;8482;54.396;18.590;2023-04-15T11:45:49;9.18;;;6.05;;
16727;SDS011;8482;54.396;18.590;2023-04-15T11:48:19;9.63;;;6.50;;
16727;SDS011;8482;54.396;18.590;2023-04-15T11:50:56;8.85;;;5.30;;
16727;SDS011;8482;54.396;18.590;2023-04-15T11:53:42;8.00;;;5.03;;
16727;SDS011;8482;54.396;18.590;2023-04-15T11:56:19;8.50;;;5.07;;
16727;SDS011;8482;54.396;18.590;2023-04-15T11:58:47;8.30;;;5.35;;
16727;SDS011;8482;54.396;18.590;2023-04-15T12:01:16;9.00;;;5.40;;
16727;SDS011;8482;54.396;18.590;2023-04-15T12:03:46;9.02;;;5.20;;
16727;SDS011;8482;54.396;18.590;2023-04-15T12:06:14;8.95;;;5.85;;
16727;SDS011;8482;54.396;18.590;2023-04-15T12:09:00;11.90;;;6.10;;
16727;SDS011;8482;54.396;18.590;2023-04-15T12:14:26;11.45;;;6.05;;
16727;SDS011;8482;54.396;18.590;2023-04-15T12:17:00;8.00;;;4.95;;
16727;SDS011;8482;54.396;18.590;2023-04-15T12:19:36;8.98;;;5.25;;
16727;SDS011;8482;54.396;18.590;2023-04-15T12:24:37;7.40;;;4.60;;
16727;SDS011;8482;54.396;18.590;2023-04-15T12:27:08;11.85;;;7.22;;
16727;SDS011;8482;54.396;18.590;2023-04-15T12:29:37;12.38;;;7.80;;
16727;SDS011;8482;54.396;18.590;2023-04-15T12:32:07;12.85;;;7.70;;
16727;SDS011;8482;54.396;18.590;2023-04-15T12:34:38;10.35;;;6.40;;
16727;SDS011;8482;54.396;18.590;2023-04-15T12:37:06;9.55;;;5.80;;
16727;SDS011;8482;54.396;18.590;2023-04-15T12:39:36;10.68;;;6.15;;
16727;SDS011;8482;54.396;18.590;2023-04-15T12:42:04;8.73;;;5.43;;
16727;SDS011;8482;54.396;18.590;2023-04-15T12:44:31;11.05;;;6.43;;
16727;SDS011;8482;54.396;18.590;2023-04-15T12:47:00;12.27;;;6.78;;
16727;SDS011;8482;54.396;18.590;2023-04-15T12:49:27;10.18;;;5.90;;
16727;SDS011;8482;54.396;18.590;2023-04-15T12:51:57;11.90;;;6.57;;
16727;SDS011;8482;54.396;18.590;2023-04-15T12:54:25;15.98;;;10.43;;
16727;SDS011;8482;54.396;18.590;2023-04-15T12:56:51;12.07;;;8.57;;
16727;SDS011;8482;54.396;18.590;2023-04-15T12:59:18;12.75;;;7.65;;
16727;SDS011;8482;54.396;18.590;2023-04-15T13:01:45;15.48;;;7.88;;
16727;SDS011;8482;54.396;18.590;2023-04-15T13:04:13;9.82;;;6.75;;
16727;SDS011;8482;54.396;18.590;2023-04-15T13:06:40;10.95;;;7.22;;
16727;SDS011;8482;54.396;18.590;2023-04-15T13:09:06;10.93;;;6.18;;
16727;SDS011;8482;54.396;18.590;2023-04-15T13:11:32;9.88;;;6.43;;
16727;SDS011;8482;54.396;18.590;2023-04-15T13:13:59;11.52;;;7.18;;
16727;SDS011;8482;54.396;18.590;2023-04-15T13:16:30;11.32;;;7.05;;
16727;SDS011;8482;54.396;18.590;2023-04-15T13:18:57;10.10;;;6.28;;
16727;SDS011;8482;54.396;18.590;2023-04-15T13:21:24;8.65;;;5.90;;
16727;SDS011;8482;54.396;18.590;2023-04-15T13:23:51;10.57;;;6.63;;
16727;SDS011;8482;54.396;18.590;2023-04-15T13:26:17;9.65;;;5.50;;
16727;SDS011;8482;54.396;18.590;2023-04-15T13:28:43;9.07;;;6.10;;
16727;SDS011;8482;54.396;18.590;2023-04-15T13:31:10;8.80;;;5.43;;
16727;SDS011;8482;54.396;18.590;2023-04-15T13:33:36;9.88;;;5.95;;
16727;SDS011;8482;54.396;18.590;2023-04-15T13:36:02;9.07;;;5.65;;
16727;SDS011;8482;54.396;18.590;2023-04-15T13:38:28;8.73;;;5.82;;
16727;SDS011;8482;54.396;18.590;2023-04-15T13:40:54;11.43;;;6.70;;
16727;SDS011;8482;54.396;18.590;2023-04-15T13:43:20;11.05;;;7.15;;
16727;SDS011;8482;54.396;18.590;2023-04-15T13:45:46;8.82;;;5.68;;
16727;SDS011;8482;54.396;18.590;2023-04-15T13:48:12;9.77;;;5.95;;
16727;SDS011;8482;54.396;18.590;2023-04-15T13:50:38;10.23;;;6.40;;
16727;SDS011;8482;54.396;18.590;2023-04-15T13:53:09;9.35;;;6.13;;
16727;SDS011;8482;54.396;18.590;2023-04-15T13:55:36;9.95;;;5.78;;
16727;SDS011;8482;54.396;18.590;2023-04-15T13:58:05;8.68;;;5.82;;
16727;SDS011;8482;54.396;18.590;2023-04-15T14:00:35;9.95;;;6.70;;
16727;SDS011;8482;54.396;18.590;2023-04-15T14:03:01;9.35;;;5.82;;
16727;SDS011;8482;54.396;18.590;2023-04-15T14:05:27;9.27;;;5.97;;
16727;SDS011;8482;54.396;18.590;2023-04-15T14:07:53;9.32;;;6.07;;
16727;SDS011;8482;54.396;18.590;2023-04-15T14:10:19;9.00;;;6.20;;
16727;SDS011;8482;54.396;18.590;2023-04-15T14:12:45;10.23;;;6.38;;
16727;SDS011;8482;54.396;18.590;2023-04-15T14:15:11;10.15;;;6.38;;
16727;SDS011;8482;54.396;18.590;2023-04-15T14:17:36;10.10;;;6.05;;
16727;SDS011;8482;54.396;18.590;2023-04-15T14:20:02;9.50;;;5.65;;
16727;SDS011;8482;54.396;18.590;2023-04-15T14:22:31;10.43;;;7.00;;
16727;SDS011;8482;54.396;18.590;2023-04-15T14:24:57;10.10;;;6.00;;
16727;SDS011;8482;54.396;18.590;2023-04-15T14:27:23;10.75;;;6.60;;
16727;SDS011;8482;54.396;18.590;2023-04-15T14:29:51;11.27;;;6.40;;
16727;SDS011;8482;54.396;18.590;2023-04-15T14:32:18;9.43;;;6.78;;
16727;SDS011;8482;54.396;18.590;2023-04-15T14:34:44;10.05;;;6.20;;
16727;SDS011;8482;54.396;18.590;2023-04-15T14:37:10;11.07;;;6.40;;
16727;SDS011;8482;54.396;18.590;2023-04-15T14:39:35;12.52;;;7.40;;
16727;SDS011;8482;54.396;18.590;2023-04-15T14:42:01;9.52;;;5.97;;
16727;SDS011;8482;54.396;18.590;2023-04-15T14:44:27;9.73;;;6.65;;
16727;SDS011;8482;54.396;18.590;2023-04-15T14:46:53;10.57;;;6.60;;
16727;SDS011;8482;54.396;18.590;2023-04-15T14:49:20;11.02;;;7.05;;
16727;SDS011;8482;54.396;18.590;2023-04-15T14:51:45;10.65;;;6.35;;
16727;SDS011;8482;54.396;18.590;2023-04-15T14:54:11;10.18;;;6.40;;
16727;SDS011;8482;54.396;18.590;2023-04-15T14:56:37;9.57;;;6.47;;
16727;SDS011;8482;54.396;18.590;2023-04-15T14:59:03;9.98;;;6.30;;